createdAt,value
2022-10-19T00:02:08.453Z,102141.78
2022-10-19T00:04:34.877Z,102146.13
2022-10-19T00:07:01.228Z,102144.53
2022-10-19T00:09:27.730Z,102160.88
2022-10-19T00:11:54.092Z,102158.03
2022-10-19T00:14:23.432Z,102154.66
2022-10-19T00:16:55.564Z,102152.97
2022-10-19T00:19:25.198Z,102150.44
2022-10-19T00:21:51.969Z,102140.97
2022-10-19T00:24:18.674Z,102138.50
2022-10-19T00:26:45.096Z,102137.34
2022-10-19T00:29:12.983Z,102126.63
2022-10-19T00:31:39.796Z,102132.03
2022-10-19T00:34:06.188Z,102119.13
2022-10-19T00:36:35.621Z,102120.97
2022-10-19T00:39:04.220Z,102124.22
2022-10-19T00:41:32.735Z,102126.91
2022-10-19T00:44:01.947Z,102131.34
2022-10-19T00:46:31.045Z,102131.47
2022-10-19T00:49:01.415Z,102140.78
2022-10-19T00:51:29.366Z,102145.69
2022-10-19T00:53:56.599Z,102152.84
2022-10-19T00:56:23.215Z,102150.34
2022-10-19T00:58:49.768Z,102147.09
2022-10-19T01:01:17.855Z,102146.31
2022-10-19T01:03:44.985Z,102142.47
2022-10-19T01:06:13.959Z,102139.31
2022-10-19T01:08:40.315Z,102143.56
2022-10-19T01:11:14.169Z,102139.31
2022-10-19T01:13:48.251Z,102140.72
2022-10-19T01:16:31.635Z,102140.56
2022-10-19T01:19:10.313Z,102139.31
2022-10-19T01:21:50.912Z,102138.88
2022-10-19T01:24:28.810Z,102125.94
2022-10-19T01:27:02.928Z,102130.31
2022-10-19T01:29:59.752Z,102129.25
2022-10-19T01:32:57.969Z,102126.19
2022-10-19T01:35:41.609Z,102133.50
2022-10-19T01:38:36.008Z,102122.03
2022-10-19T01:41:14.352Z,102127.06
2022-10-19T01:43:48.760Z,102119.19
2022-10-19T01:46:19.421Z,102121.53
2022-10-19T01:48:52.543Z,102119.78
2022-10-19T01:51:23.223Z,102119.59
2022-10-19T01:53:53.005Z,102112.31
2022-10-19T01:56:22.084Z,102111.63
2022-10-19T01:58:49.476Z,102106.66
2022-10-19T02:01:18.463Z,102108.13
2022-10-19T02:03:45.110Z,102100.91
2022-10-19T02:06:12.668Z,102106.88
2022-10-19T02:08:47.210Z,102104.38
2022-10-19T02:11:14.340Z,102106.88
2022-10-19T02:13:41.498Z,102109.47
2022-10-19T02:16:12.815Z,102099.97
2022-10-19T02:18:42.562Z,102107.47
2022-10-19T02:21:09.466Z,102106.06
2022-10-19T02:23:36.243Z,102103.34
2022-10-19T02:26:02.878Z,102098.31
2022-10-19T02:28:29.869Z,102092.59
2022-10-19T02:30:56.393Z,102098.06
2022-10-19T02:33:23.041Z,102098.22
2022-10-19T02:35:49.604Z,102102.88
2022-10-19T02:38:19.920Z,102103.53
2022-10-19T02:40:54.124Z,102113.63
2022-10-19T02:43:23.103Z,102108.47
2022-10-19T02:45:59.064Z,102108.72
2022-10-19T02:48:27.921Z,102111.78
2022-10-19T02:50:54.273Z,102111.06
2022-10-19T02:53:20.654Z,102115.13
2022-10-19T02:55:48.531Z,102104.22
2022-10-19T02:58:15.100Z,102104.47
2022-10-19T03:00:41.667Z,102102.47
2022-10-19T03:03:08.049Z,102109.03
2022-10-19T03:05:34.412Z,102098.22
2022-10-19T03:08:00.777Z,102101.41
2022-10-19T03:10:27.120Z,102098.59
2022-10-19T03:12:53.516Z,102100.50
2022-10-19T03:15:20.058Z,102098.09
2022-10-19T03:17:46.474Z,102091.19
2022-10-19T03:20:12.834Z,102088.78
2022-10-19T03:22:39.192Z,102084.69
2022-10-19T03:25:06.007Z,102092.59
2022-10-19T03:27:32.714Z,102097.81
2022-10-19T03:29:59.199Z,102091.09
2022-10-19T03:32:25.555Z,102095.00
2022-10-19T03:34:51.898Z,102091.00
2022-10-19T03:37:18.268Z,102101.91
2022-10-19T03:39:44.618Z,102103.16
2022-10-19T03:42:11.000Z,102107.25
2022-10-19T03:44:37.379Z,102110.41
2022-10-19T03:47:03.742Z,102100.28
2022-10-19T03:49:30.102Z,102110.56
2022-10-19T03:51:56.479Z,102108.16
2022-10-19T03:54:25.088Z,102110.06
2022-10-19T03:56:53.776Z,102112.63
2022-10-19T03:59:20.203Z,102102.09
2022-10-19T04:01:46.591Z,102102.09
2022-10-19T04:04:15.937Z,102100.16
2022-10-19T04:06:43.936Z,102104.47
2022-10-19T04:09:13.405Z,102103.06
2022-10-19T04:11:39.816Z,102100.97
2022-10-19T04:14:06.419Z,102107.53
2022-10-19T04:16:33.232Z,102106.66
2022-10-19T04:19:00.277Z,102102.84
2022-10-19T04:21:37.731Z,102102.06
2022-10-19T04:24:06.804Z,102101.69
2022-10-19T04:26:34.316Z,102095.00
2022-10-19T04:29:01.557Z,102100.22
2022-10-19T04:31:28.635Z,102106.41
2022-10-19T04:33:55.642Z,102105.16
2022-10-19T04:36:22.835Z,102112.75
2022-10-19T04:38:49.224Z,102116.03
2022-10-19T04:41:18.129Z,102101.25
2022-10-19T04:43:47.839Z,102099.41
2022-10-19T04:46:18.956Z,102094.91
2022-10-19T04:48:46.558Z,102094.72
2022-10-19T04:51:13.259Z,102091.53
2022-10-19T04:53:40.661Z,102093.03
2022-10-19T04:56:08.960Z,102094.47
2022-10-19T04:58:35.651Z,102094.06
2022-10-19T05:01:13.785Z,102086.78
2022-10-19T05:03:40.435Z,102087.78
2022-10-19T05:06:07.502Z,102085.88
2022-10-19T05:08:34.208Z,102084.53
2022-10-19T05:11:06.400Z,102090.19
2022-10-19T05:13:32.984Z,102086.69
2022-10-19T05:16:01.061Z,102090.44
2022-10-19T05:18:27.888Z,102080.47
2022-10-19T05:21:01.890Z,102085.94
2022-10-19T05:23:29.168Z,102082.63
2022-10-19T05:26:17.181Z,102080.78
2022-10-19T05:28:48.063Z,102078.22
2022-10-19T05:31:19.666Z,102072.41
2022-10-19T05:33:46.375Z,102077.91
2022-10-19T05:36:15.266Z,102072.00
2022-10-19T05:38:42.503Z,102062.75
2022-10-19T05:41:08.970Z,102062.19
2022-10-19T05:43:35.484Z,102060.94
2022-10-19T05:46:10.567Z,102069.63
2022-10-19T05:48:37.931Z,102069.19
2022-10-19T05:51:05.769Z,102069.38
2022-10-19T05:53:33.063Z,102079.84
2022-10-19T05:55:59.468Z,102081.84
2022-10-19T05:58:25.902Z,102074.50
2022-10-19T06:00:56.756Z,102083.00
2022-10-19T06:03:24.111Z,102080.69
2022-10-19T06:05:50.622Z,102084.69
2022-10-19T06:08:17.907Z,102085.84
2022-10-19T06:10:45.018Z,102080.16
2022-10-19T06:13:11.745Z,102087.69
2022-10-19T06:15:40.041Z,102093.69
2022-10-19T06:18:07.849Z,102101.78
2022-10-19T06:20:40.586Z,102098.44
2022-10-19T06:23:07.551Z,102098.44
2022-10-19T06:25:35.159Z,102099.41
2022-10-19T06:28:01.980Z,102099.72
2022-10-19T06:30:28.641Z,102105.41
2022-10-19T06:32:55.271Z,102105.34
2022-10-19T06:35:21.686Z,102109.53
2022-10-19T06:37:48.038Z,102109.53
2022-10-19T06:40:14.501Z,102112.34
2022-10-19T06:42:40.993Z,102111.16
2022-10-19T06:45:08.872Z,102114.84
2022-10-19T06:47:36.351Z,102112.75
2022-10-19T06:50:05.288Z,102108.38
2022-10-19T06:52:32.984Z,102108.66
2022-10-19T06:54:59.715Z,102117.69
2022-10-19T06:57:26.132Z,102112.72
2022-10-19T06:59:53.051Z,102108.94
2022-10-19T07:02:20.305Z,102114.09
2022-10-19T07:04:46.692Z,102106.13
2022-10-19T07:07:13.104Z,102101.06
2022-10-19T07:09:39.472Z,102105.06
2022-10-19T07:12:05.954Z,102111.47
2022-10-19T07:14:38.683Z,102102.47
2022-10-19T07:17:10.985Z,102107.81
2022-10-19T07:19:37.752Z,102101.91
2022-10-19T07:22:04.348Z,102110.28
2022-10-19T07:24:30.735Z,102107.16
2022-10-19T07:26:57.166Z,102111.56
2022-10-19T07:29:23.526Z,102101.81
2022-10-19T07:31:50.007Z,102101.16
2022-10-19T07:34:16.564Z,102103.56
2022-10-19T07:36:45.266Z,102105.97
2022-10-19T07:39:12.455Z,102097.50
2022-10-19T07:41:39.387Z,102099.53
2022-10-19T07:44:06.008Z,102106.44
2022-10-19T07:46:39.050Z,102109.69
2022-10-19T07:49:09.711Z,102106.00
2022-10-19T07:51:37.296Z,102104.56
2022-10-19T07:54:04.117Z,102101.72
2022-10-19T07:56:30.938Z,102103.00
2022-10-19T07:58:58.541Z,102093.88
2022-10-19T08:01:30.168Z,102097.69
2022-10-19T08:04:43.191Z,102094.75
2022-10-19T08:06:44.069Z,102096.34
2022-10-19T08:09:15.689Z,102098.94
2022-10-19T08:11:49.314Z,102102.13
2022-10-19T08:14:15.687Z,102108.81
2022-10-19T08:16:44.204Z,102105.94
2022-10-19T08:19:12.719Z,102116.44
2022-10-19T08:21:40.588Z,102112.06
2022-10-19T08:24:07.424Z,102110.44
2022-10-19T08:26:40.025Z,102105.16
2022-10-19T08:29:14.888Z,102113.34
2022-10-19T08:31:42.488Z,102117.34
2022-10-19T08:34:09.252Z,102114.94
2022-10-19T08:36:36.936Z,102113.31
2022-10-19T08:39:07.844Z,102110.75
2022-10-19T08:41:40.254Z,102102.84
2022-10-19T08:44:10.248Z,102103.28
2022-10-19T08:47:00.441Z,102099.47
2022-10-19T08:49:30.687Z,102101.94
2022-10-19T08:52:04.499Z,102106.00
2022-10-19T08:54:38.160Z,102107.84
2022-10-19T08:57:15.561Z,102105.38
2022-10-19T08:59:50.747Z,102094.50
2022-10-19T09:02:45.048Z,102096.53
2022-10-19T09:05:26.583Z,102093.75
2022-10-19T09:07:53.800Z,102082.91
2022-10-19T09:10:25.594Z,102087.34
2022-10-19T09:13:01.402Z,102089.13
2022-10-19T09:15:47.606Z,102080.41
2022-10-19T09:18:20.110Z,102073.00
2022-10-19T09:20:49.444Z,102067.28
2022-10-19T09:23:22.088Z,102061.03
2022-10-19T09:25:50.268Z,102054.81
2022-10-19T09:28:46.453Z,102052.41
2022-10-19T09:31:21.983Z,102039.84
2022-10-19T09:33:53.180Z,102034.06
2022-10-19T09:36:27.570Z,102030.81
2022-10-19T09:38:59.538Z,102025.84
2022-10-19T09:41:25.961Z,102027.25
2022-10-19T09:43:54.365Z,102028.94
2022-10-19T09:46:32.700Z,102019.47
2022-10-19T09:49:01.326Z,102019.00
2022-10-19T09:51:39.237Z,102015.47
2022-10-19T09:54:05.674Z,102014.69
2022-10-19T09:56:38.012Z,102011.81
2022-10-19T09:59:04.556Z,102001.66
2022-10-19T10:01:43.043Z,102002.19
2022-10-19T10:04:15.749Z,101995.50
2022-10-19T10:06:42.927Z,101991.59
2022-10-19T10:09:15.941Z,101985.88
2022-10-19T10:11:43.823Z,101984.47
2022-10-19T10:14:39.850Z,101992.72
2022-10-19T10:17:22.376Z,101985.66
2022-10-19T10:19:58.026Z,101977.84
2022-10-19T10:22:30.596Z,101970.56
2022-10-19T10:24:57.543Z,101970.25
2022-10-19T10:27:33.442Z,101969.41
2022-10-19T10:30:06.150Z,101973.66
2022-10-19T10:32:37.384Z,101961.19
2022-10-19T10:35:16.566Z,101961.94
2022-10-19T10:37:46.969Z,101957.06
2022-10-19T10:40:30.804Z,101960.31
2022-10-19T10:43:02.826Z,101952.69
2022-10-19T10:45:34.869Z,101951.06
2022-10-19T10:48:17.582Z,101949.09
2022-10-19T10:50:44.271Z,101951.59
2022-10-19T10:53:33.185Z,101941.53
2022-10-19T10:55:59.608Z,101935.31
2022-10-19T10:58:40.901Z,101933.31
2022-10-19T11:01:16.237Z,101931.94
2022-10-19T11:03:48.279Z,101929.69
2022-10-19T11:06:14.912Z,101929.84
2022-10-19T11:08:47.810Z,101926.88
2022-10-19T11:11:20.835Z,101915.97
2022-10-19T11:13:50.097Z,101911.22
2022-10-19T11:16:18.769Z,101909.91
2022-10-19T11:18:52.430Z,101900.34
2022-10-19T11:21:31.882Z,101897.38
2022-10-19T11:24:33.888Z,101895.22
2022-10-19T11:27:38.233Z,101885.00
2022-10-19T11:30:17.192Z,101878.53
2022-10-19T11:32:52.779Z,101875.22
2022-10-19T11:35:52.790Z,101861.06
2022-10-19T11:38:38.975Z,101879.34
2022-10-19T11:41:26.380Z,101866.75
2022-10-19T11:44:23.360Z,101864.84
2022-10-19T11:47:14.785Z,101864.19
2022-10-19T11:49:44.792Z,101856.69
2022-10-19T11:52:37.214Z,101863.44
2022-10-19T11:55:03.577Z,101872.22
2022-10-19T11:57:43.232Z,101857.56
2022-10-19T12:00:37.584Z,101853.19
2022-10-19T12:03:14.515Z,101844.66
2022-10-19T12:05:59.251Z,101842.81
2022-10-19T12:08:56.636Z,101843.78
2022-10-19T12:11:44.816Z,101840.97
2022-10-19T12:14:21.812Z,101833.31
2022-10-19T12:16:51.025Z,101828.59
2022-10-19T12:19:35.953Z,101822.72
2022-10-19T12:22:04.181Z,101824.72
2022-10-19T12:24:32.716Z,101821.78
2022-10-19T12:26:59.708Z,101818.34
2022-10-19T12:29:37.787Z,101814.63
2022-10-19T12:32:04.955Z,101807.38
2022-10-19T12:35:17.726Z,101800.38
2022-10-19T12:37:56.549Z,101784.94
2022-10-19T12:40:36.160Z,101778.09
2022-10-19T12:43:19.869Z,101780.78
2022-10-19T12:46:05.814Z,101775.59
2022-10-19T12:48:32.178Z,101775.88
2022-10-19T12:51:00.796Z,101775.69
2022-10-19T12:53:31.367Z,101769.13
2022-10-19T12:56:24.631Z,101770.41
2022-10-19T12:59:01.115Z,101762.38
2022-10-19T13:01:43.810Z,101759.50
2022-10-19T13:04:19.775Z,101757.66
2022-10-19T13:06:51.528Z,101762.66
2022-10-19T13:09:31.854Z,101747.72
2022-10-19T13:12:21.796Z,101752.97
2022-10-19T13:14:52.599Z,101754.97
2022-10-19T13:17:46.388Z,101755.78
2022-10-19T13:20:16.005Z,101757.03
2022-10-19T13:22:47.260Z,101742.03
2022-10-19T13:25:19.727Z,101728.78
2022-10-19T13:27:47.593Z,101733.34
2022-10-19T13:30:36.072Z,101726.19
2022-10-19T13:33:31.366Z,101700.69
2022-10-19T13:36:00.830Z,101696.94
2022-10-19T13:41:25.049Z,101687.06
2022-10-19T13:44:10.172Z,101686.47
2022-10-19T13:46:45.660Z,101671.13
2022-10-19T13:49:34.205Z,101671.06
2022-10-19T13:52:11.777Z,101659.88
2022-10-19T13:54:46.953Z,101655.53
2022-10-19T13:57:37.418Z,101656.09
2022-10-19T14:00:14.333Z,101659.75
2022-10-19T14:02:59.560Z,101649.22
2022-10-19T14:05:53.910Z,101648.25
2022-10-19T14:08:38.468Z,101644.66
2022-10-19T14:11:12.105Z,101645.56
2022-10-19T14:13:38.447Z,101651.06
2022-10-19T14:16:05.130Z,101643.63
2022-10-19T14:18:33.792Z,101639.63
2022-10-19T14:21:07.324Z,101637.78
2022-10-19T14:23:36.157Z,101641.97
2022-10-19T14:26:04.797Z,101636.69
2022-10-19T14:28:31.793Z,101640.63
2022-10-19T14:31:05.974Z,101644.66
2022-10-19T14:33:40.010Z,101644.91
2022-10-19T14:36:21.106Z,101648.75
2022-10-19T14:38:49.675Z,101646.59
2022-10-19T14:41:30.117Z,101646.47
2022-10-19T14:43:56.948Z,101644.59
2022-10-19T14:46:29.913Z,101640.16
2022-10-19T14:49:01.099Z,101637.84
2022-10-19T14:51:40.400Z,101643.53
2022-10-19T14:54:11.198Z,101644.47
2022-10-19T14:57:00.913Z,101643.59
2022-10-19T14:59:30.892Z,101640.38
2022-10-19T15:02:00.024Z,101634.78
2022-10-19T15:04:32.731Z,101623.78
2022-10-19T15:07:01.384Z,101620.72
2022-10-19T15:09:37.398Z,101625.75
2022-10-19T15:12:15.667Z,101619.22
2022-10-19T15:14:42.221Z,101624.50
2022-10-19T15:17:28.115Z,101623.91
2022-10-19T15:19:56.090Z,101618.16
2022-10-19T15:22:39.193Z,101618.69
2022-10-19T15:25:08.621Z,101624.38
2022-10-19T15:27:37.042Z,101616.25
2022-10-19T15:30:17.948Z,101617.38
2022-10-19T15:32:46.177Z,101616.44
2022-10-19T15:35:18.546Z,101617.38
2022-10-19T15:37:45.613Z,101617.72
2022-10-19T15:40:17.907Z,101612.50
2022-10-19T15:42:44.353Z,101608.00
2022-10-19T15:45:39.509Z,101608.44
2022-10-19T15:48:24.541Z,101607.97
2022-10-19T15:50:51.890Z,101604.34
2022-10-19T15:53:19.360Z,101608.03
2022-10-19T15:55:46.031Z,101602.75
2022-10-19T15:58:13.313Z,101598.63
2022-10-19T16:00:40.802Z,101599.94
2022-10-19T16:03:07.438Z,101597.66
2022-10-19T16:05:35.508Z,101590.97
2022-10-19T16:08:02.100Z,101592.63
2022-10-19T16:10:28.493Z,101585.22
2022-10-19T16:12:54.938Z,101585.19
2022-10-19T16:15:22.882Z,101591.94
2022-10-19T16:17:54.224Z,101593.63
2022-10-19T16:20:21.265Z,101588.25
2022-10-19T16:22:48.102Z,101581.91
2022-10-19T16:25:15.213Z,101586.97
2022-10-19T16:27:41.726Z,101574.88
2022-10-19T16:30:08.673Z,101570.66
2022-10-19T16:32:35.064Z,101574.41
2022-10-19T16:35:01.434Z,101572.00
2022-10-19T16:37:27.968Z,101575.41
2022-10-19T16:39:54.320Z,101576.59
2022-10-19T16:42:21.278Z,101581.53
2022-10-19T16:44:47.634Z,101586.53
2022-10-19T16:47:14.758Z,101581.22
2022-10-19T16:49:41.113Z,101584.25
2022-10-19T16:52:07.484Z,101575.44
2022-10-19T16:54:33.873Z,101569.97
2022-10-19T16:57:00.238Z,101562.19
2022-10-19T16:59:26.705Z,101570.91
2022-10-19T17:01:53.866Z,101563.09
2022-10-19T17:04:20.516Z,101557.19
2022-10-19T17:06:46.933Z,101561.09
2022-10-19T17:11:59.681Z,101539.22
2022-10-19T17:14:26.064Z,101531.44
2022-10-19T17:16:52.468Z,101523.34
2022-10-19T17:19:18.835Z,101523.28
2022-10-19T17:21:45.208Z,101522.06
2022-10-19T17:24:21.043Z,101520.28
2022-10-19T17:26:49.695Z,101521.81
2022-10-19T17:29:16.101Z,101517.69
2022-10-19T17:31:43.085Z,101518.47
2022-10-19T17:34:09.968Z,101517.28
2022-10-19T17:39:09.026Z,101517.09
2022-10-19T17:41:35.552Z,101515.25
2022-10-19T17:44:03.603Z,101520.19
2022-10-19T17:46:32.838Z,101514.47
2022-10-19T17:48:59.741Z,101519.41
2022-10-19T17:51:29.097Z,101519.66
2022-10-19T17:53:58.052Z,101522.91
2022-10-19T17:56:24.924Z,101524.47
2022-10-19T17:58:51.484Z,101533.53
2022-10-19T18:01:19.819Z,101541.44
2022-10-19T18:03:46.497Z,101533.66
2022-10-19T18:06:25.980Z,101537.03
2022-10-19T18:08:54.434Z,101536.38
2022-10-19T18:11:26.615Z,101536.13
2022-10-19T18:13:56.230Z,101541.03
2022-10-19T18:16:27.745Z,101536.00
2022-10-19T18:18:56.301Z,101533.16
2022-10-19T18:21:25.705Z,101538.19
2022-10-19T18:23:53.478Z,101535.09
2022-10-19T18:26:23.084Z,101536.91
2022-10-19T18:28:50.468Z,101537.03
2022-10-19T18:31:21.861Z,101532.00
2022-10-19T18:33:50.618Z,101534.97
2022-10-19T18:36:16.971Z,101535.75
2022-10-19T18:38:43.350Z,101536.53
2022-10-19T18:43:39.301Z,101533.25
2022-10-19T18:46:06.169Z,101531.47
2022-10-19T18:48:32.616Z,101535.09
2022-10-19T18:51:02.960Z,101534.03
2022-10-19T18:53:30.018Z,101526.53
2022-10-19T18:56:00.485Z,101527.41
2022-10-19T18:58:27.060Z,101515.78
2022-10-19T19:01:08.439Z,101513.84
2022-10-19T19:03:35.496Z,101512.41
2022-10-19T19:06:07.348Z,101516.31
2022-10-19T19:08:34.111Z,101524.66
2022-10-19T19:11:18.422Z,101513.03
2022-10-19T19:13:49.756Z,101513.63
2022-10-19T19:16:16.263Z,101504.94
2022-10-19T19:18:42.832Z,101513.09
2022-10-19T19:21:17.430Z,101502.59
2022-10-19T19:23:44.484Z,101501.97
2022-10-19T19:26:12.733Z,101490.00
2022-10-19T19:28:41.554Z,101487.34
2022-10-19T19:31:10.101Z,101481.72
2022-10-19T19:33:36.539Z,101481.34
2022-10-19T19:36:07.459Z,101472.78
2022-10-19T19:38:34.417Z,101474.59
2022-10-19T19:41:03.849Z,101473.97
2022-10-19T19:43:31.735Z,101468.34
2022-10-19T19:46:03.119Z,101477.13
2022-10-19T19:48:32.669Z,101459.41
2022-10-19T19:50:59.083Z,101462.22
2022-10-19T19:53:25.444Z,101463.88
2022-10-19T19:55:51.812Z,101454.53
2022-10-19T19:58:18.845Z,101445.63
2022-10-19T20:00:46.462Z,101440.72
2022-10-19T20:03:13.503Z,101450.66
2022-10-19T20:05:40.805Z,101441.63
2022-10-19T20:08:07.938Z,101436.84
2022-10-19T20:10:38.348Z,101431.31
2022-10-19T20:15:38.953Z,101429.94
2022-10-19T20:18:06.281Z,101432.25
2022-10-19T20:20:32.710Z,101430.28
2022-10-19T20:22:59.071Z,101429.53
2022-10-19T20:25:25.414Z,101432.50
2022-10-19T20:27:51.779Z,101437.94
2022-10-19T20:30:18.283Z,101445.94
2022-10-19T20:32:44.663Z,101440.50
2022-10-19T20:35:11.092Z,101434.88
2022-10-19T20:37:37.468Z,101443.47
2022-10-19T20:40:08.498Z,101444.25
2022-10-19T20:42:35.632Z,101447.84
2022-10-19T20:45:02.247Z,101444.25
2022-10-19T20:47:28.599Z,101434.63
2022-10-19T20:49:55.018Z,101435.03
2022-10-19T20:52:21.441Z,101437.84
2022-10-19T20:54:48.483Z,101431.19
2022-10-19T20:57:14.843Z,101423.31
2022-10-19T20:59:41.194Z,101418.41
2022-10-19T21:02:09.675Z,101409.47
2022-10-19T21:04:36.089Z,101407.69
2022-10-19T21:07:04.321Z,101408.97
2022-10-19T21:09:30.724Z,101400.97
2022-10-19T21:11:57.179Z,101392.72
2022-10-19T21:14:28.019Z,101391.63
2022-10-19T21:16:57.041Z,101393.44
2022-10-19T21:19:25.421Z,101390.16
2022-10-19T21:21:57.800Z,101396.78
2022-10-19T21:24:28.370Z,101393.44
2022-10-19T21:26:54.778Z,101386.19
2022-10-19T21:29:21.298Z,101387.84
2022-10-19T21:31:49.643Z,101387.91
2022-10-19T21:34:18.382Z,101384.50
2022-10-19T21:36:45.039Z,101385.56
2022-10-19T21:39:12.751Z,101389.94
2022-10-19T21:41:39.130Z,101388.81
2022-10-19T21:44:05.559Z,101391.13
2022-10-19T21:46:31.973Z,101384.31
2022-10-19T21:48:58.365Z,101382.25
2022-10-19T21:51:44.316Z,101378.78
2022-10-19T21:54:15.418Z,101376.31
2022-10-19T21:56:41.957Z,101370.91
2022-10-19T21:59:08.443Z,101366.91
2022-10-19T22:01:38.663Z,101360.84
2022-10-19T22:04:10.525Z,101355.06
2022-10-19T22:06:36.903Z,101359.66
2022-10-19T22:09:06.206Z,101349.09
2022-10-19T22:11:32.809Z,101342.03
2022-10-19T22:14:00.979Z,101349.84
2022-10-19T22:16:28.072Z,101344.91
2022-10-19T22:18:55.438Z,101332.44
2022-10-19T22:21:29.303Z,101320.81
2022-10-19T22:24:05.200Z,101321.44
2022-10-19T22:26:34.481Z,101323.09
2022-10-19T22:29:01.739Z,101324.06
2022-10-19T22:31:29.502Z,101325.06
2022-10-19T22:33:56.151Z,101314.06
2022-10-19T22:36:22.538Z,101312.09
2022-10-19T22:38:48.948Z,101303.25
2022-10-19T22:41:15.307Z,101295.50
2022-10-19T22:43:41.761Z,101290.06
2022-10-19T22:46:08.254Z,101291.59
2022-10-19T22:48:34.618Z,101294.94
2022-10-19T22:51:01.022Z,101292.22
2022-10-19T22:53:27.473Z,101295.22
2022-10-19T22:55:53.895Z,101294.06
2022-10-19T22:58:20.285Z,101287.94
2022-10-19T23:01:00.566Z,101291.72
2022-10-19T23:03:26.956Z,101286.81
2022-10-19T23:05:53.327Z,101290.63
2022-10-19T23:08:19.707Z,101277.97
2022-10-19T23:10:46.060Z,101285.84
2022-10-19T23:13:12.448Z,101293.09
2022-10-19T23:15:43.067Z,101276.84
2022-10-19T23:18:10.572Z,101265.66
2022-10-19T23:20:36.979Z,101280.03
2022-10-19T23:23:03.479Z,101274.25
2022-10-19T23:25:29.842Z,101263.88
2022-10-19T23:27:56.203Z,101268.88
2022-10-19T23:30:22.657Z,101265.22
2022-10-19T23:32:49.085Z,101261.63
2022-10-19T23:35:15.506Z,101261.28
2022-10-19T23:37:41.880Z,101255.34
2022-10-19T23:40:08.602Z,101251.22
2022-10-19T23:42:34.942Z,101243.34
2022-10-19T23:45:01.298Z,101238.94
2022-10-19T23:47:27.819Z,101243.69
2022-10-19T23:49:54.194Z,101235.94
2022-10-19T23:52:20.547Z,101243.69
2022-10-19T23:54:46.922Z,101238.66
2022-10-19T23:57:13.353Z,101225.78
2022-10-19T23:59:39.767Z,101229.06
